Weather History for Storm Lake, IA

Change the Weather History Date:

Friday, February 24, 2012

  Actual Average Record
Temperature  
Mean Temperature 23 °F -  
Max Temperature 27 °F 32 °F 59 °F (2006)
Min Temperature 18 °F 19 °F 0 °F (2003)
Degree Days  
Heating Degree Days 42    
Moisture  
Dew Point 19 °F    
Average Humidity 87    
Maximum Humidity 99    
Minimum Humidity 75    
Precipitation  
Precipitation 0.00 in - - ()
Sea Level Pressure  
Sea Level Pressure 29.92 in    
Wind  
Wind Speed 15 mph (NW)    
Max Wind Speed 25 mph    
Max Gust Speed 36 mph    
Visibility 9 miles    
Events      
Averages and records for this station are not official NWS values.
T = Trace of Precipitation, MM = Missing Value Source: NWS Daily Summary

Daily Weather History Graph

Daily Weather History Graph

Search for Another Location

Airport:

Trip Planner

Search our weather history database for the weather conditions in past years. The results will help you decide how hot, cold, wet, or windy it might be!

Date:

Astronomy

Feb. 24, 2012 Rise Set
Actual Time 7:05 AM CST 6:03 PM CST
Civil Twilight 6:36 AM CST 6:32 PM CST
Nautical Twilight 6:04 AM CST 7:05 PM CST
Astronomical Twilight 5:31 AM CST 7:37 PM CST
Moon 7:55 AM CST (2/24) 9:14 PM CST (2/24)
Length of Visible Light 11h 55m
Length of Day
10h 58m
Waxing Crescent, 8% of the Moon is Illuminated
Feb 24
Waxing Crescent
Feb 29
First Quarter
Mar 8
Full
Mar 14
Last Quarter
Mar 22
New

Hourly Weather History & Observations

Time (CST) Temp. Windchill Dew Point Humidity Pressure Visibility Wind Dir Wind Speed Gust Speed Precip Events Conditions
12:15 AM 25.7 °F 15.7 °F 25.3 °F 99% 29.74 in 3.0 mi NW 10.4 mph - N/A   Overcast
12:35 AM 25.7 °F 15.7 °F 25.3 °F 99% 29.74 in 3.0 mi NW 10.4 mph - N/A   Overcast
12:55 AM 25.7 °F 18.0 °F 25.5 °F 99% 29.75 in 4.0 mi NW 6.9 mph - N/A   Overcast
1:15 AM 26.1 °F 16.8 °F 25.7 °F 99% 29.75 in 3.0 mi NNW 9.2 mph - N/A   Overcast
1:35 AM 27.0 °F 15.2 °F 26.4 °F 98% 29.75 in 5.0 mi NNW 15.0 mph 21.9 mph N/A   Overcast
1:55 AM 26.2 °F 13.4 °F 25.3 °F 96% 29.77 in 3.0 mi NNW 17.3 mph 21.9 mph N/A   Overcast
2:15 AM 26.1 °F 14.0 °F 24.3 °F 93% 29.77 in 5.0 mi NNW 15.0 mph - N/A   Overcast
2:35 AM 25.5 °F 14.3 °F 23.2 °F 91% 29.78 in 10.0 mi NW 12.7 mph - N/A   Mostly Cloudy
2:55 AM 25.7 °F 14.6 °F 23.0 °F 89% 29.78 in 10.0 mi NW 12.7 mph 17.3 mph N/A   Mostly Cloudy
3:15 AM 24.4 °F 11.5 °F 21.4 °F 88% 29.78 in 10.0 mi NW 16.1 mph - N/A   Scattered Clouds
3:35 AM 22.8 °F 9.9 °F 19.8 °F 88% 29.79 in 10.0 mi NW 15.0 mph - N/A   Clear
3:55 AM 22.1 °F 9.5 °F 18.3 °F 85% 29.80 in 10.0 mi NW 13.8 mph - N/A   Clear
4:15 AM 20.8 °F 7.9 °F 17.6 °F 87% 29.81 in 10.0 mi NW 13.8 mph - N/A   Clear
4:35 AM 19.8 °F 7.1 °F 16.5 °F 87% 29.82 in 10.0 mi NW 12.7 mph - N/A   Clear
4:55 AM 19.2 °F 7.0 °F 16.7 °F 90% 29.83 in 10.0 mi WNW 11.5 mph - N/A   Clear
5:15 AM 19.8 °F 8.3 °F 18.1 °F 93% 29.84 in 10.0 mi NW 10.4 mph - N/A   Mostly Cloudy
5:35 AM 21.6 °F 9.9 °F 19.0 °F 90% 29.84 in 10.0 mi NW 11.5 mph - N/A   Overcast
5:55 AM 22.1 °F 10.0 °F 18.9 °F 87% 29.84 in 10.0 mi NW 12.7 mph - N/A   Overcast
6:15 AM 21.9 °F 9.8 °F 18.9 °F 88% 29.85 in 10.0 mi NW 12.7 mph - N/A   Overcast
6:35 AM 21.7 °F 8.5 °F 18.9 °F 89% 29.86 in 10.0 mi NW 15.0 mph - N/A   Overcast
6:55 AM 21.0 °F 8.1 °F 18.0 °F 88% 29.87 in 10.0 mi NW 13.8 mph - N/A   Scattered Clouds
7:15 AM 20.3 °F 6.6 °F 17.4 °F 89% 29.88 in 10.0 mi WNW 15.0 mph - N/A   Clear
7:35 AM 19.2 °F 5.8 °F 17.1 °F 91% 29.89 in 10.0 mi WNW 13.8 mph - N/A   Mostly Cloudy
7:55 AM 20.8 °F 6.8 °F 18.7 °F 91% 29.90 in 10.0 mi WNW 16.1 mph 21.9 mph N/A   Overcast
8:15 AM 21.6 °F 7.8 °F 19.2 °F 91% 29.91 in 10.0 mi WNW 16.1 mph - N/A   Overcast
8:55 AM 22.1 °F 7.2 °F 19.4 °F 89% 29.93 in 10.0 mi NW 19.6 mph - N/A   Scattered Clouds
9:15 AM 22.1 °F 8.0 °F 18.5 °F 86% 29.94 in 10.0 mi NW 17.3 mph 21.9 mph N/A   Scattered Clouds
9:35 AM 21.7 °F 6.7 °F 15.6 °F 77% 29.94 in 10.0 mi NW 19.6 mph 26.5 mph N/A   Clear
9:55 AM 21.2 °F 5.2 °F 14.4 °F 75% 29.95 in 10.0 mi NW 21.9 mph 26.5 mph N/A   Clear
10:15 AM 20.8 °F 5.9 °F 14.0 °F 75% 29.96 in 10.0 mi NW 18.4 mph 27.6 mph N/A   Clear
10:35 AM 21.0 °F 6.2 °F 14.4 °F 75% 29.97 in 10.0 mi NW 18.4 mph 23.0 mph N/A   Clear
10:55 AM 20.8 °F 4.4 °F 14.7 °F 77% 29.97 in 10.0 mi NW 23.0 mph 27.6 mph N/A   Clear
11:15 AM 20.8 °F 5.1 °F 15.1 °F 78% 29.98 in 10.0 mi WNW 20.7 mph 25.3 mph N/A   Clear
11:35 AM 20.7 °F 4.5 °F 15.6 °F 81% 29.99 in 10.0 mi WNW 21.9 mph - N/A   Clear
11:55 AM 20.7 °F 4.9 °F 15.8 °F 81% 29.99 in 10.0 mi WNW 20.7 mph - N/A   Clear
12:15 PM 20.8 °F 4.7 °F 15.6 °F 80% 29.99 in 10.0 mi WNW 21.9 mph - N/A   Clear
12:35 PM 21.2 °F 5.2 °F 15.8 °F 80% 29.99 in 10.0 mi WNW 21.9 mph - N/A   Clear
12:55 PM 21.2 °F 5.6 °F 15.8 °F 80% 29.99 in 10.0 mi WNW 20.7 mph - N/A   Clear
1:15 PM 22.1 °F 6.4 °F 16.7 °F 80% 30.00 in 10.0 mi WNW 21.9 mph 25.3 mph N/A   Clear
1:35 PM 21.9 °F 7.3 °F 16.9 °F 81% 30.00 in 10.0 mi WNW 18.4 mph - N/A   Mostly Cloudy
1:55 PM 22.3 °F 7.4 °F 17.4 °F 82% 30.00 in 10.0 mi WNW 19.6 mph - N/A   Overcast
2:15 PM 22.6 °F 8.3 °F 18.0 °F 82% 30.00 in 10.0 mi West 18.4 mph - N/A   Overcast
2:35 PM 22.3 °F 7.4 °F 18.3 °F 85% 30.01 in 10.0 mi WNW 19.6 mph - N/A   Overcast
2:55 PM 22.5 °F 8.5 °F 18.9 °F 86% 30.01 in 10.0 mi WNW 17.3 mph - N/A   Overcast
3:15 PM 22.8 °F 8.9 °F 19.0 °F 85% 30.01 in 10.0 mi West 17.3 mph - N/A   Overcast
3:35 PM 23.5 °F 10.3 °F 19.8 °F 85% 30.02 in 10.0 mi WNW 16.1 mph - N/A   Overcast
4:15 PM 22.5 °F 8.0 °F 19.4 °F 88% 30.02 in 10.0 mi West 18.4 mph - N/A   Mostly Cloudy
4:35 PM 22.1 °F 8.5 °F 19.0 °F 88% 30.02 in 10.0 mi West 16.1 mph - N/A   Scattered Clouds
4:55 PM 21.9 °F 8.2 °F 19.2 °F 89% 30.02 in 10.0 mi West 16.1 mph - N/A   Mostly Cloudy
5:15 PM 21.7 °F 8.5 °F 19.2 °F 90% 30.02 in 10.0 mi West 15.0 mph - N/A   Mostly Cloudy
5:35 PM 22.1 °F 10.0 °F 19.9 °F 91% 30.03 in 10.0 mi West 12.7 mph - N/A   Overcast
5:55 PM 22.1 °F 10.0 °F 19.9 °F 91% 30.03 in 10.0 mi West 12.7 mph - N/A   Overcast
6:15 PM 22.6 °F 10.7 °F 20.3 °F 91% 30.02 in 10.0 mi West 12.7 mph - N/A   Overcast
6:35 PM 23.2 °F 10.8 °F 21.0 °F 91% 30.02 in 7.0 mi West 13.8 mph - N/A   Overcast
6:55 PM 23.2 °F 9.4 °F 21.0 °F 91% 30.03 in 10.0 mi West 17.3 mph - N/A   Overcast
7:15 PM 23.9 °F 7.8 °F 21.9 °F 92% 30.03 in 1.8 mi NW 25.3 mph 35.7 mph N/A   Overcast
7:35 PM 21.4 °F 5.5 °F 18.5 °F 89% 30.05 in 3.0 mi NNW 21.9 mph 32.2 mph N/A   Overcast
7:55 PM 21.0 °F 5.7 °F 18.0 °F 88% 30.07 in 5.0 mi NNW 19.6 mph 25.3 mph N/A   Overcast
8:35 PM 18.5 °F 3.3 °F 14.7 °F 85% 30.08 in 10.0 mi NW 17.3 mph - N/A   Clear
8:55 PM 17.1 °F 3.0 °F 12.7 °F 83% 30.09 in 10.0 mi NW 13.8 mph - N/A   Scattered Clouds
9:15 PM 16.5 °F 2.4 °F 11.7 °F 81% 30.09 in 10.0 mi NW 13.8 mph - N/A   Clear
9:35 PM 15.8 °F 0.3 °F 10.8 °F 80% 30.11 in 10.0 mi WNW 16.1 mph - N/A   Clear
9:55 PM 15.3 °F 0.2 °F 10.4 °F 81% 30.11 in 10.0 mi NW 15.0 mph - N/A   Mostly Cloudy
10:15 PM 15.4 °F 1.0 °F 10.4 °F 80% 30.12 in 10.0 mi NW 13.8 mph - N/A   Overcast
10:35 PM 16.5 °F 2.4 °F 11.5 °F 81% 30.12 in 10.0 mi NNW 13.8 mph 20.7 mph N/A   Overcast
11:15 PM 15.8 °F 0.9 °F 12.0 °F 85% 30.14 in 10.0 mi NW 15.0 mph - N/A   Overcast
11:35 PM 14.9 °F 0.9 °F 11.7 °F 87% 30.14 in 10.0 mi NW 12.7 mph - N/A   Scattered Clouds
11:55 PM 14.9 °F 2.3 °F 12.2 °F 89% 30.16 in 10.0 mi WNW 10.4 mph - N/A   Mostly Cloudy